KGRK/GRK METAR and TAF weather

Enter ICAO airport designator
Station Type Date Time Source
KGRK METAR 2020/09/24 10:58 UTC NOAA

KGRK 241058Z AUTO 36003KT 10SM OVC025 20/16 A2992 RMK AO2 SLP125 T01980164


Station Type Date Time Source
KGRK Decoded METAR 2020/09/24 10:58 UTC NOAA

Fort Hood, Robert Gray AAF Ft Hood, TX, United States (KGRK) 31-04N 097-49W
Sep 24, 2020 - 06:58 AM EDT / 2020.09.24 1058 UTC
Wind: from the N (360 degrees) at 3 MPH (3 KT):0
Visibility: 10 mile(s):0
Sky conditions: overcast
Temperature: 67.6 F (19.8 C)
Dew Point: 61.5 F (16.4 C)
Relative Humidity: 80%
Pressure (altimeter): 29.92 in. Hg (1013 hPa)
ob: KGRK 241058Z AUTO 36003KT 10SM OVC025 20/16 A2992 RMK AO2 SLP125 T01980164
cycle: 11

Station Type Date Time Source
KGRK TAF 2020/09/24 08:19 UTC NOAA

TAF KGRK 240800Z 2408/2514 VRB06KT 6000 BR OVC020 QNH2993INS
TEMPO 2411/2414 OVC010
BECMG 2415/2416 35012KT 9999 NSW SCT020 QNH2992INS
BECMG 2422/2423 01006KT 9999 SKC QNH2990INS TX24/2422Z TN17/2507Z

Example: see airport list